CheckWX is a tool to help pilots better visualize weather data.  It is not intended as a substitute for an official pre-flight weather briefing.

10:05:06 UTC

CYQB TAF
Quebec / Jean Lesage International Airport
Quebec, Canada
TAF AMD CYQB 240822Z 2408/2506 04012KT P6SM -RA FEW008 SCT020 OVC030 TEMPO 2408/2410 5SM -SHRA BR OVC008 FM241000 05012KT P6SM OVC025 TEMPO 2410/2417 P6SM -RA OVC015 FM241700 06012KT P6SM BKN030 FM242100 06008KT P6SM -SHRA BKN040 FM250200 26005KT P6SM BKN040 RMK NXT FCST BY 241200Z

May-24@
08:00 UTC

May-24 @ 08:00 UTC

May-24@
10:00 UTC

May-24 @ 10:00 UTC

TAF AMD CYQB 240822Z 2408/2506 04012KT P6SM -RA FEW008 SCT020 OVC030

Expired

Wind
  • 040° at 12 KTS
Conditions
Light Rain
Cloud Levels
  • Few at 800' AGL
  • Scattered at 2,000' AGL
  • Overcast at 3,000' AGL

May-24@
08:00 UTC

May-24 @ 08:00 UTC

May-24@
10:00 UTC

May-24 @ 10:00 UTC

TEMPO 2408/2410 5SM -SHRA BR OVC008

Expired

Conditions
Light Rain, Mist
Cloud Levels
  • Overcast at 800' AGL

May-24@
10:00 UTC

May-24 @ 10:00 UTC

May-24@
17:00 UTC

May-24 @ 17:00 UTC

FM241000 05012KT P6SM OVC025

From

From Standard forecast or significant change

Wind
  • 050° at 12 KTS
Cloud Levels
  • Overcast at 2,500' AGL

May-24@
10:00 UTC

May-24 @ 10:00 UTC

May-24@
17:00 UTC

May-24 @ 17:00 UTC

TEMPO 2410/2417 P6SM -RA OVC015

Temporary

Temporary Changes expected for less than half the time period

Conditions
Light Rain
Cloud Levels
  • Overcast at 1,500' AGL

May-24@
17:00 UTC

May-24 @ 17:00 UTC

May-24@
21:00 UTC

May-24 @ 21:00 UTC

FM241700 06012KT P6SM BKN030

From

From Standard forecast or significant change

Wind
  • 060° at 12 KTS
Cloud Levels
  • Broken at 3,000' AGL

May-24@
21:00 UTC

May-24 @ 21:00 UTC

May-25@
02:00 UTC

May-25 @ 02:00 UTC

FM242100 06008KT P6SM -SHRA BKN040

From

From Standard forecast or significant change

Wind
  • 060° at 8 KTS
Conditions
Light Rain
Cloud Levels
  • Broken at 4,000' AGL

May-25@
02:00 UTC

May-25 @ 02:00 UTC

May-25@
06:00 UTC

May-25 @ 06:00 UTC

FM250200 26005KT P6SM BKN040 RMK NXT FCST BY 241200Z

From

From Standard forecast or significant change

Wind
  • 260° at 5 KTS
Cloud Levels
  • Broken at 4,000' AGL